sensor_id;sensor_type;location;lat;lon;timestamp;P1;durP1;ratioP1;P2;durP2;ratioP2
8652;SDS011;4364;52.426;9.424;2024-03-02T00:00:22;17.80;;;12.97;;
8652;SDS011;4364;52.426;9.424;2024-03-02T00:02:51;16.57;;;12.20;;
8652;SDS011;4364;52.426;9.424;2024-03-02T00:05:21;15.93;;;12.23;;
8652;SDS011;4364;52.426;9.424;2024-03-02T00:07:52;16.37;;;12.20;;
8652;SDS011;4364;52.426;9.424;2024-03-02T00:10:23;16.73;;;12.17;;
8652;SDS011;4364;52.426;9.424;2024-03-02T00:12:56;15.30;;;10.80;;
8652;SDS011;4364;52.426;9.424;2024-03-02T00:18:23;13.07;;;9.83;;
8652;SDS011;4364;52.426;9.424;2024-03-02T00:20:56;15.67;;;10.77;;
8652;SDS011;4364;52.426;9.424;2024-03-02T00:23:24;13.23;;;9.83;;
8652;SDS011;4364;52.426;9.424;2024-03-02T00:25:53;13.90;;;10.17;;
8652;SDS011;4364;52.426;9.424;2024-03-02T00:28:23;13.23;;;10.03;;
8652;SDS011;4364;52.426;9.424;2024-03-02T00:30:51;13.77;;;9.93;;
8652;SDS011;4364;52.426;9.424;2024-03-02T00:33:24;13.67;;;9.93;;
8652;SDS011;4364;52.426;9.424;2024-03-02T00:35:54;12.60;;;9.37;;
8652;SDS011;4364;52.426;9.424;2024-03-02T00:38:21;12.47;;;9.43;;
8652;SDS011;4364;52.426;9.424;2024-03-02T00:40:48;12.90;;;10.10;;
8652;SDS011;4364;52.426;9.424;2024-03-02T00:46:17;12.73;;;9.30;;
8652;SDS011;4364;52.426;9.424;2024-03-02T00:48:47;12.10;;;8.80;;
8652;SDS011;4364;52.426;9.424;2024-03-02T00:51:25;10.80;;;8.77;;
8652;SDS011;4364;52.426;9.424;2024-03-02T00:53:54;11.50;;;8.97;;
8652;SDS011;4364;52.426;9.424;2024-03-02T00:56:24;13.10;;;9.63;;
8652;SDS011;4364;52.426;9.424;2024-03-02T00:58:51;13.23;;;9.60;;
8652;SDS011;4364;52.426;9.424;2024-03-02T01:01:19;11.93;;;8.60;;
8652;SDS011;4364;52.426;9.424;2024-03-02T01:03:46;12.90;;;9.23;;
8652;SDS011;4364;52.426;9.424;2024-03-02T01:06:12;11.13;;;8.57;;
8652;SDS011;4364;52.426;9.424;2024-03-02T01:08:39;11.87;;;8.67;;
8652;SDS011;4364;52.426;9.424;2024-03-02T01:11:05;12.80;;;9.23;;
8652;SDS011;4364;52.426;9.424;2024-03-02T01:13:32;10.90;;;8.63;;
8652;SDS011;4364;52.426;9.424;2024-03-02T01:15:59;12.10;;;8.93;;
8652;SDS011;4364;52.426;9.424;2024-03-02T01:18:28;12.40;;;9.33;;
8652;SDS011;4364;52.426;9.424;2024-03-02T01:20:55;13.13;;;9.90;;
8652;SDS011;4364;52.426;9.424;2024-03-02T01:23:22;11.73;;;9.53;;
8652;SDS011;4364;52.426;9.424;2024-03-02T01:25:50;12.57;;;9.23;;
8652;SDS011;4364;52.426;9.424;2024-03-02T01:28:18;12.53;;;9.23;;
8652;SDS011;4364;52.426;9.424;2024-03-02T01:30:48;13.37;;;9.07;;
8652;SDS011;4364;52.426;9.424;2024-03-02T01:33:15;12.60;;;9.50;;
8652;SDS011;4364;52.426;9.424;2024-03-02T01:35:43;13.77;;;9.77;;
8652;SDS011;4364;52.426;9.424;2024-03-02T01:38:09;12.87;;;9.17;;
8652;SDS011;4364;52.426;9.424;2024-03-02T01:40:36;11.97;;;9.00;;
8652;SDS011;4364;52.426;9.424;2024-03-02T01:43:04;15.73;;;10.37;;
8652;SDS011;4364;52.426;9.424;2024-03-02T01:45:31;12.80;;;9.50;;
8652;SDS011;4364;52.426;9.424;2024-03-02T01:47:58;13.73;;;9.70;;
8652;SDS011;4364;52.426;9.424;2024-03-02T01:50:27;12.27;;;9.40;;
8652;SDS011;4364;52.426;9.424;2024-03-02T01:52:55;13.80;;;9.47;;
8652;SDS011;4364;52.426;9.424;2024-03-02T01:55:22;14.27;;;10.13;;
8652;SDS011;4364;52.426;9.424;2024-03-02T01:57:49;13.27;;;9.80;;
8652;SDS011;4364;52.426;9.424;2024-03-02T02:00:19;11.73;;;9.03;;
8652;SDS011;4364;52.426;9.424;2024-03-02T02:02:47;12.93;;;9.20;;
8652;SDS011;4364;52.426;9.424;2024-03-02T02:05:14;12.00;;;8.97;;
8652;SDS011;4364;52.426;9.424;2024-03-02T02:07:41;14.23;;;9.47;;
8652;SDS011;4364;52.426;9.424;2024-03-02T02:10:09;14.80;;;10.17;;
8652;SDS011;4364;52.426;9.424;2024-03-02T02:12:36;13.23;;;9.43;;
8652;SDS011;4364;52.426;9.424;2024-03-02T02:15:03;12.93;;;9.17;;
8652;SDS011;4364;52.426;9.424;2024-03-02T02:17:31;12.20;;;9.50;;
8652;SDS011;4364;52.426;9.424;2024-03-02T02:19:58;11.23;;;8.63;;
8652;SDS011;4364;52.426;9.424;2024-03-02T02:22:24;13.53;;;9.23;;
8652;SDS011;4364;52.426;9.424;2024-03-02T02:24:51;12.93;;;9.83;;
8652;SDS011;4364;52.426;9.424;2024-03-02T02:27:18;12.77;;;10.00;;
8652;SDS011;4364;52.426;9.424;2024-03-02T02:29:44;13.03;;;9.97;;
8652;SDS011;4364;52.426;9.424;2024-03-02T02:32:11;15.47;;;10.03;;
8652;SDS011;4364;52.426;9.424;2024-03-02T02:34:37;14.17;;;9.33;;
8652;SDS011;4364;52.426;9.424;2024-03-02T02:37:04;12.90;;;9.00;;
8652;SDS011;4364;52.426;9.424;2024-03-02T02:39:31;11.90;;;9.13;;
8652;SDS011;4364;52.426;9.424;2024-03-02T02:41:57;15.43;;;10.63;;
8652;SDS011;4364;52.426;9.424;2024-03-02T02:44:24;13.77;;;9.47;;
8652;SDS011;4364;52.426;9.424;2024-03-02T02:46:51;14.20;;;9.73;;
8652;SDS011;4364;52.426;9.424;2024-03-02T02:49:18;13.27;;;9.93;;
8652;SDS011;4364;52.426;9.424;2024-03-02T02:51:44;13.33;;;9.10;;
8652;SDS011;4364;52.426;9.424;2024-03-02T02:54:11;13.63;;;9.80;;
8652;SDS011;4364;52.426;9.424;2024-03-02T02:56:37;13.23;;;9.87;;
8652;SDS011;4364;52.426;9.424;2024-03-02T02:59:04;13.43;;;10.20;;
8652;SDS011;4364;52.426;9.424;2024-03-02T03:01:30;15.67;;;10.63;;
8652;SDS011;4364;52.426;9.424;2024-03-02T03:03:57;14.60;;;10.77;;
8652;SDS011;4364;52.426;9.424;2024-03-02T03:06:23;15.70;;;10.60;;
8652;SDS011;4364;52.426;9.424;2024-03-02T03:08:50;13.97;;;10.13;;
8652;SDS011;4364;52.426;9.424;2024-03-02T03:11:17;15.43;;;11.20;;
8652;SDS011;4364;52.426;9.424;2024-03-02T03:13:43;16.27;;;11.20;;
8652;SDS011;4364;52.426;9.424;2024-03-02T03:16:10;16.73;;;11.37;;
8652;SDS011;4364;52.426;9.424;2024-03-02T03:18:36;15.30;;;11.03;;
8652;SDS011;4364;52.426;9.424;2024-03-02T03:21:03;17.37;;;11.97;;
8652;SDS011;4364;52.426;9.424;2024-03-02T03:23:30;15.27;;;11.57;;
8652;SDS011;4364;52.426;9.424;2024-03-02T03:25:57;16.23;;;11.33;;
8652;SDS011;4364;52.426;9.424;2024-03-02T03:28:23;15.87;;;11.60;;
8652;SDS011;4364;52.426;9.424;2024-03-02T03:30:50;16.47;;;11.30;;
8652;SDS011;4364;52.426;9.424;2024-03-02T03:33:17;17.03;;;12.73;;
8652;SDS011;4364;52.426;9.424;2024-03-02T03:35:43;19.07;;;13.63;;
8652;SDS011;4364;52.426;9.424;2024-03-02T03:38:10;20.73;;;13.60;;
8652;SDS011;4364;52.426;9.424;2024-03-02T03:40:36;21.90;;;13.93;;
8652;SDS011;4364;52.426;9.424;2024-03-02T03:43:03;19.23;;;13.73;;
8652;SDS011;4364;52.426;9.424;2024-03-02T03:45:29;19.63;;;13.47;;
8652;SDS011;4364;52.426;9.424;2024-03-02T03:47:57;23.90;;;15.57;;
8652;SDS011;4364;52.426;9.424;2024-03-02T03:50:23;18.43;;;14.10;;
8652;SDS011;4364;52.426;9.424;2024-03-02T03:52:50;22.20;;;14.40;;
8652;SDS011;4364;52.426;9.424;2024-03-02T03:55:16;21.17;;;13.70;;
8652;SDS011;4364;52.426;9.424;2024-03-02T03:57:43;23.27;;;14.30;;
8652;SDS011;4364;52.426;9.424;2024-03-02T04:00:10;21.57;;;14.57;;
8652;SDS011;4364;52.426;9.424;2024-03-02T04:02:38;21.20;;;14.27;;
8652;SDS011;4364;52.426;9.424;2024-03-02T04:05:05;22.20;;;15.27;;
8652;SDS011;4364;52.426;9.424;2024-03-02T04:07:35;23.70;;;14.67;;
8652;SDS011;4364;52.426;9.424;2024-03-02T04:10:10;22.63;;;14.43;;
8652;SDS011;4364;52.426;9.424;2024-03-02T04:12:36;24.30;;;15.60;;
8652;SDS011;4364;52.426;9.424;2024-03-02T04:15:07;22.37;;;14.57;;
8652;SDS011;4364;52.426;9.424;2024-03-02T04:17:33;22.30;;;14.73;;
8652;SDS011;4364;52.426;9.424;2024-03-02T04:20:01;23.97;;;15.33;;
8652;SDS011;4364;52.426;9.424;2024-03-02T04:22:32;22.63;;;14.37;;
8652;SDS011;4364;52.426;9.424;2024-03-02T04:24:59;22.27;;;14.77;;
8652;SDS011;4364;52.426;9.424;2024-03-02T04:27:27;22.07;;;14.67;;
8652;SDS011;4364;52.426;9.424;2024-03-02T04:29:53;22.70;;;14.53;;
8652;SDS011;4364;52.426;9.424;2024-03-02T04:32:20;23.37;;;15.37;;
8652;SDS011;4364;52.426;9.424;2024-03-02T04:34:46;24.57;;;16.00;;
8652;SDS011;4364;52.426;9.424;2024-03-02T04:37:13;24.17;;;15.73;;
8652;SDS011;4364;52.426;9.424;2024-03-02T04:39:40;22.33;;;15.20;;
8652;SDS011;4364;52.426;9.424;2024-03-02T04:42:07;26.73;;;16.17;;
8652;SDS011;4364;52.426;9.424;2024-03-02T04:44:33;26.33;;;17.03;;
8652;SDS011;4364;52.426;9.424;2024-03-02T04:47:01;27.67;;;16.07;;
8652;SDS011;4364;52.426;9.424;2024-03-02T04:49:28;24.80;;;15.90;;
8652;SDS011;4364;52.426;9.424;2024-03-02T04:51:54;26.20;;;16.40;;
8652;SDS011;4364;52.426;9.424;2024-03-02T04:54:21;25.87;;;16.27;;
8652;SDS011;4364;52.426;9.424;2024-03-02T04:56:48;26.00;;;16.23;;
8652;SDS011;4364;52.426;9.424;2024-03-02T04:59:17;25.60;;;16.80;;
8652;SDS011;4364;52.426;9.424;2024-03-02T05:01:44;26.80;;;16.90;;
8652;SDS011;4364;52.426;9.424;2024-03-02T05:04:11;29.73;;;17.20;;
8652;SDS011;4364;52.426;9.424;2024-03-02T05:06:38;28.67;;;17.73;;
8652;SDS011;4364;52.426;9.424;2024-03-02T05:09:06;27.83;;;17.70;;
8652;SDS011;4364;52.426;9.424;2024-03-02T05:11:33;27.73;;;16.83;;
8652;SDS011;4364;52.426;9.424;2024-03-02T05:14:03;26.13;;;15.77;;
8652;SDS011;4364;52.426;9.424;2024-03-02T05:16:33;26.83;;;15.70;;
8652;SDS011;4364;52.426;9.424;2024-03-02T05:19:01;24.03;;;15.17;;
8652;SDS011;4364;52.426;9.424;2024-03-02T05:21:27;26.60;;;15.87;;
8652;SDS011;4364;52.426;9.424;2024-03-02T05:23:54;23.57;;;15.30;;
8652;SDS011;4364;52.426;9.424;2024-03-02T05:26:20;25.57;;;15.10;;
8652;SDS011;4364;52.426;9.424;2024-03-02T05:28:47;23.77;;;15.33;;
8652;SDS011;4364;52.426;9.424;2024-03-02T05:31:16;25.33;;;15.50;;
8652;SDS011;4364;52.426;9.424;2024-03-02T05:33:43;24.93;;;15.37;;
8652;SDS011;4364;52.426;9.424;2024-03-02T05:36:10;24.87;;;15.93;;
8652;SDS011;4364;52.426;9.424;2024-03-02T05:38:37;25.07;;;15.90;;
8652;SDS011;4364;52.426;9.424;2024-03-02T05:41:03;25.97;;;15.70;;
8652;SDS011;4364;52.426;9.424;2024-03-02T05:43:30;24.43;;;15.47;;
8652;SDS011;4364;52.426;9.424;2024-03-02T05:45:57;27.10;;;16.73;;
8652;SDS011;4364;52.426;9.424;2024-03-02T05:48:23;24.50;;;16.20;;
8652;SDS011;4364;52.426;9.424;2024-03-02T05:50:50;25.70;;;16.30;;
8652;SDS011;4364;52.426;9.424;2024-03-02T05:53:16;27.30;;;16.97;;
8652;SDS011;4364;52.426;9.424;2024-03-02T05:55:43;23.80;;;16.00;;
8652;SDS011;4364;52.426;9.424;2024-03-02T05:58:11;24.30;;;15.87;;
8652;SDS011;4364;52.426;9.424;2024-03-02T06:00:52;24.87;;;16.13;;
8652;SDS011;4364;52.426;9.424;2024-03-02T06:03:20;25.17;;;15.40;;
8652;SDS011;4364;52.426;9.424;2024-03-02T06:05:47;25.87;;;16.80;;
8652;SDS011;4364;52.426;9.424;2024-03-02T06:08:15;32.43;;;17.47;;
8652;SDS011;4364;52.426;9.424;2024-03-02T06:10:42;27.63;;;16.77;;
8652;SDS011;4364;52.426;9.424;2024-03-02T06:13:09;27.97;;;17.70;;
8652;SDS011;4364;52.426;9.424;2024-03-02T06:15:36;27.87;;;17.43;;
8652;SDS011;4364;52.426;9.424;2024-03-02T06:18:03;28.63;;;17.67;;
8652;SDS011;4364;52.426;9.424;2024-03-02T06:20:29;28.17;;;17.93;;
8652;SDS011;4364;52.426;9.424;2024-03-02T06:23:02;32.57;;;18.60;;
8652;SDS011;4364;52.426;9.424;2024-03-02T06:25:29;27.70;;;18.13;;
8652;SDS011;4364;52.426;9.424;2024-03-02T06:27:55;32.67;;;19.17;;
8652;SDS011;4364;52.426;9.424;2024-03-02T06:30:22;31.90;;;18.90;;
8652;SDS011;4364;52.426;9.424;2024-03-02T06:32:48;30.33;;;18.30;;
8652;SDS011;4364;52.426;9.424;2024-03-02T06:35:15;34.63;;;20.37;;
8652;SDS011;4364;52.426;9.424;2024-03-02T06:37:41;33.03;;;19.47;;
8652;SDS011;4364;52.426;9.424;2024-03-02T06:40:08;31.90;;;19.77;;
8652;SDS011;4364;52.426;9.424;2024-03-02T06:42:35;32.37;;;19.50;;
8652;SDS011;4364;52.426;9.424;2024-03-02T06:45:02;33.10;;;19.30;;
8652;SDS011;4364;52.426;9.424;2024-03-02T06:47:29;29.37;;;18.90;;
8652;SDS011;4364;52.426;9.424;2024-03-02T06:49:56;30.00;;;19.20;;
8652;SDS011;4364;52.426;9.424;2024-03-02T06:52:24;30.53;;;18.80;;
8652;SDS011;4364;52.426;9.424;2024-03-02T06:54:51;29.73;;;18.23;;
8652;SDS011;4364;52.426;9.424;2024-03-02T06:57:18;30.13;;;18.83;;
8652;SDS011;4364;52.426;9.424;2024-03-02T06:59:46;28.53;;;18.00;;
8652;SDS011;4364;52.426;9.424;2024-03-02T07:02:12;27.47;;;16.97;;
8652;SDS011;4364;52.426;9.424;2024-03-02T07:04:39;28.83;;;17.97;;
8652;SDS011;4364;52.426;9.424;2024-03-02T07:07:05;27.47;;;17.27;;
8652;SDS011;4364;52.426;9.424;2024-03-02T07:09:32;27.13;;;16.73;;
8652;SDS011;4364;52.426;9.424;2024-03-02T07:11:59;25.50;;;16.43;;
8652;SDS011;4364;52.426;9.424;2024-03-02T07:14:25;28.07;;;16.60;;
8652;SDS011;4364;52.426;9.424;2024-03-02T07:17:12;28.77;;;16.97;;
8652;SDS011;4364;52.426;9.424;2024-03-02T07:19:38;28.07;;;17.27;;
8652;SDS011;4364;52.426;9.424;2024-03-02T07:22:06;26.23;;;16.13;;
8652;SDS011;4364;52.426;9.424;2024-03-02T07:24:43;26.40;;;16.47;;
8652;SDS011;4364;52.426;9.424;2024-03-02T07:27:10;28.13;;;17.43;;
8652;SDS011;4364;52.426;9.424;2024-03-02T07:29:37;29.73;;;17.70;;
8652;SDS011;4364;52.426;9.424;2024-03-02T07:32:04;28.00;;;16.77;;
8652;SDS011;4364;52.426;9.424;2024-03-02T07:34:31;30.40;;;17.67;;
8652;SDS011;4364;52.426;9.424;2024-03-02T07:36:58;28.00;;;17.20;;
8652;SDS011;4364;52.426;9.424;2024-03-02T07:39:24;26.00;;;16.50;;
8652;SDS011;4364;52.426;9.424;2024-03-02T07:41:51;25.77;;;17.07;;
8652;SDS011;4364;52.426;9.424;2024-03-02T07:44:18;28.23;;;17.47;;
8652;SDS011;4364;52.426;9.424;2024-03-02T07:46:45;26.67;;;16.97;;
8652;SDS011;4364;52.426;9.424;2024-03-02T07:49:18;26.13;;;17.07;;
8652;SDS011;4364;52.426;9.424;2024-03-02T07:51:45;26.63;;;16.63;;
8652;SDS011;4364;52.426;9.424;2024-03-02T07:54:11;29.23;;;17.23;;
8652;SDS011;4364;52.426;9.424;2024-03-02T07:56:38;26.57;;;16.13;;
8652;SDS011;4364;52.426;9.424;2024-03-02T07:59:04;26.43;;;16.23;;
8652;SDS011;4364;52.426;9.424;2024-03-02T08:01:31;24.17;;;15.47;;
8652;SDS011;4364;52.426;9.424;2024-03-02T08:03:59;24.17;;;15.50;;
8652;SDS011;4364;52.426;9.424;2024-03-02T08:06:26;22.63;;;14.07;;
8652;SDS011;4364;52.426;9.424;2024-03-02T08:08:54;21.53;;;14.77;;
8652;SDS011;4364;52.426;9.424;2024-03-02T08:11:21;22.80;;;14.80;;
8652;SDS011;4364;52.426;9.424;2024-03-02T08:13:48;22.20;;;15.23;;
8652;SDS011;4364;52.426;9.424;2024-03-02T08:16:15;22.80;;;15.20;;
8652;SDS011;4364;52.426;9.424;2024-03-02T08:18:45;24.40;;;15.97;;
8652;SDS011;4364;52.426;9.424;2024-03-02T08:21:13;25.20;;;15.77;;
8652;SDS011;4364;52.426;9.424;2024-03-02T08:23:40;23.57;;;14.80;;
8652;SDS011;4364;52.426;9.424;2024-03-02T08:26:10;23.23;;;15.17;;
8652;SDS011;4364;52.426;9.424;2024-03-02T08:28:38;21.37;;;15.03;;
8652;SDS011;4364;52.426;9.424;2024-03-02T08:31:07;22.07;;;14.63;;
8652;SDS011;4364;52.426;9.424;2024-03-02T08:33:34;23.20;;;15.53;;
8652;SDS011;4364;52.426;9.424;2024-03-02T08:36:04;24.03;;;15.97;;
8652;SDS011;4364;52.426;9.424;2024-03-02T08:38:31;22.63;;;15.10;;
8652;SDS011;4364;52.426;9.424;2024-03-02T08:40:57;37.90;;;17.40;;
8652;SDS011;4364;52.426;9.424;2024-03-02T08:43:24;23.07;;;15.03;;
8652;SDS011;4364;52.426;9.424;2024-03-02T08:45:51;23.97;;;14.23;;
8652;SDS011;4364;52.426;9.424;2024-03-02T08:48:18;24.07;;;13.90;;
8652;SDS011;4364;52.426;9.424;2024-03-02T08:50:44;22.90;;;14.40;;
8652;SDS011;4364;52.426;9.424;2024-03-02T08:53:11;24.27;;;15.07;;
8652;SDS011;4364;52.426;9.424;2024-03-02T08:55:38;24.73;;;14.30;;
8652;SDS011;4364;52.426;9.424;2024-03-02T08:58:05;19.33;;;13.53;;
8652;SDS011;4364;52.426;9.424;2024-03-02T09:00:32;21.77;;;13.50;;
8652;SDS011;4364;52.426;9.424;2024-03-02T09:02:59;19.80;;;12.43;;
8652;SDS011;4364;52.426;9.424;2024-03-02T09:05:25;21.47;;;12.83;;
8652;SDS011;4364;52.426;9.424;2024-03-02T09:07:52;21.50;;;13.47;;
8652;SDS011;4364;52.426;9.424;2024-03-02T09:10:18;20.40;;;13.93;;
8652;SDS011;4364;52.426;9.424;2024-03-02T09:12:45;22.47;;;14.07;;
8652;SDS011;4364;52.426;9.424;2024-03-02T09:15:11;21.43;;;13.07;;
8652;SDS011;4364;52.426;9.424;2024-03-02T09:17:38;16.57;;;10.77;;
8652;SDS011;4364;52.426;9.424;2024-03-02T09:20:05;17.93;;;11.17;;
8652;SDS011;4364;52.426;9.424;2024-03-02T09:22:31;16.73;;;10.57;;
8652;SDS011;4364;52.426;9.424;2024-03-02T09:24:58;20.53;;;11.60;;
8652;SDS011;4364;52.426;9.424;2024-03-02T09:27:25;16.60;;;9.97;;
8652;SDS011;4364;52.426;9.424;2024-03-02T09:29:52;14.37;;;10.33;;
8652;SDS011;4364;52.426;9.424;2024-03-02T09:32:19;14.87;;;10.23;;
8652;SDS011;4364;52.426;9.424;2024-03-02T09:34:45;17.10;;;10.87;;
8652;SDS011;4364;52.426;9.424;2024-03-02T09:37:14;15.93;;;11.03;;
8652;SDS011;4364;52.426;9.424;2024-03-02T09:39:43;16.50;;;10.80;;
8652;SDS011;4364;52.426;9.424;2024-03-02T09:42:10;16.40;;;11.20;;
8652;SDS011;4364;52.426;9.424;2024-03-02T09:44:37;21.03;;;10.90;;
8652;SDS011;4364;52.426;9.424;2024-03-02T09:47:04;24.67;;;11.47;;
8652;SDS011;4364;52.426;9.424;2024-03-02T09:49:31;16.03;;;10.97;;
8652;SDS011;4364;52.426;9.424;2024-03-02T09:51:58;17.40;;;10.83;;
8652;SDS011;4364;52.426;9.424;2024-03-02T09:54:25;16.20;;;10.60;;
8652;SDS011;4364;52.426;9.424;2024-03-02T09:56:51;15.70;;;10.30;;
8652;SDS011;4364;52.426;9.424;2024-03-02T09:59:18;15.50;;;10.33;;
8652;SDS011;4364;52.426;9.424;2024-03-02T10:01:59;12.40;;;9.57;;
8652;SDS011;4364;52.426;9.424;2024-03-02T10:04:33;15.00;;;10.23;;
8652;SDS011;4364;52.426;9.424;2024-03-02T10:09:38;16.03;;;10.13;;
8652;SDS011;4364;52.426;9.424;2024-03-02T10:12:06;16.37;;;10.03;;
8652;SDS011;4364;52.426;9.424;2024-03-02T10:14:34;15.23;;;9.77;;
8652;SDS011;4364;52.426;9.424;2024-03-02T10:17:05;14.03;;;9.93;;
8652;SDS011;4364;52.426;9.424;2024-03-02T10:19:33;13.60;;;9.57;;
8652;SDS011;4364;52.426;9.424;2024-03-02T10:22:01;15.17;;;10.17;;
8652;SDS011;4364;52.426;9.424;2024-03-02T10:29:53;16.57;;;10.20;;
8652;SDS011;4364;52.426;9.424;2024-03-02T10:32:19;13.43;;;9.37;;
8652;SDS011;4364;52.426;9.424;2024-03-02T10:34:48;13.70;;;9.43;;
8652;SDS011;4364;52.426;9.424;2024-03-02T10:37:16;15.00;;;9.33;;
8652;SDS011;4364;52.426;9.424;2024-03-02T10:39:46;21.57;;;9.60;;
8652;SDS011;4364;52.426;9.424;2024-03-02T10:42:13;12.27;;;9.03;;
8652;SDS011;4364;52.426;9.424;2024-03-02T10:44:40;12.47;;;8.13;;
8652;SDS011;4364;52.426;9.424;2024-03-02T10:47:07;11.97;;;8.40;;
8652;SDS011;4364;52.426;9.424;2024-03-02T10:49:35;10.70;;;7.53;;
8652;SDS011;4364;52.426;9.424;2024-03-02T10:52:04;16.60;;;8.13;;
8652;SDS011;4364;52.426;9.424;2024-03-02T10:54:31;23.03;;;8.80;;
8652;SDS011;4364;52.426;9.424;2024-03-02T10:57:03;12.97;;;7.57;;
8652;SDS011;4364;52.426;9.424;2024-03-02T10:59:34;9.37;;;7.17;;
8652;SDS011;4364;52.426;9.424;2024-03-02T11:05:24;20.43;;;7.67;;
8652;SDS011;4364;52.426;9.424;2024-03-02T11:07:59;15.20;;;7.60;;
8652;SDS011;4364;52.426;9.424;2024-03-02T11:13:42;11.40;;;7.80;;
8652;SDS011;4364;52.426;9.424;2024-03-02T11:16:34;22.40;;;7.87;;
8652;SDS011;4364;52.426;9.424;2024-03-02T11:19:04;11.63;;;7.13;;
8652;SDS011;4364;52.426;9.424;2024-03-02T11:21:35;9.23;;;6.40;;
8652;SDS011;4364;52.426;9.424;2024-03-02T11:26:50;37.43;;;8.77;;
8652;SDS011;4364;52.426;9.424;2024-03-02T11:32:16;20.70;;;7.00;;
8652;SDS011;4364;52.426;9.424;2024-03-02T11:34:50;22.77;;;6.70;;
8652;SDS011;4364;52.426;9.424;2024-03-02T11:37:18;9.50;;;5.80;;
8652;SDS011;4364;52.426;9.424;2024-03-02T11:39:47;7.40;;;5.33;;
8652;SDS011;4364;52.426;9.424;2024-03-02T11:42:16;7.80;;;5.60;;
8652;SDS011;4364;52.426;9.424;2024-03-02T11:44:47;7.53;;;5.27;;
8652;SDS011;4364;52.426;9.424;2024-03-02T11:47:15;23.63;;;7.97;;
8652;SDS011;4364;52.426;9.424;2024-03-02T11:49:50;27.17;;;6.63;;
8652;SDS011;4364;52.426;9.424;2024-03-02T11:52:17;13.97;;;5.27;;
8652;SDS011;4364;52.426;9.424;2024-03-02T11:54:45;7.20;;;5.00;;
8652;SDS011;4364;52.426;9.424;2024-03-02T11:57:13;28.33;;;6.80;;
8652;SDS011;4364;52.426;9.424;2024-03-02T11:59:48;7.73;;;4.70;;
8652;SDS011;4364;52.426;9.424;2024-03-02T12:02:19;6.30;;;4.60;;
8652;SDS011;4364;52.426;9.424;2024-03-02T12:04:47;6.37;;;4.37;;
8652;SDS011;4364;52.426;9.424;2024-03-02T12:07:21;9.40;;;4.93;;
8652;SDS011;4364;52.426;9.424;2024-03-02T12:09:59;7.10;;;4.40;;
8652;SDS011;4364;52.426;9.424;2024-03-02T12:12:30;9.50;;;4.17;;
8652;SDS011;4364;52.426;9.424;2024-03-02T12:14:56;5.83;;;4.23;;
8652;SDS011;4364;52.426;9.424;2024-03-02T12:17:23;7.03;;;4.20;;
8652;SDS011;4364;52.426;9.424;2024-03-02T12:19:49;6.20;;;4.00;;
8652;SDS011;4364;52.426;9.424;2024-03-02T12:22:16;6.10;;;3.77;;
8652;SDS011;4364;52.426;9.424;2024-03-02T12:24:43;9.47;;;4.10;;
8652;SDS011;4364;52.426;9.424;2024-03-02T12:27:12;4.80;;;3.40;;
8652;SDS011;4364;52.426;9.424;2024-03-02T12:29:41;4.33;;;3.40;;
8652;SDS011;4364;52.426;9.424;2024-03-02T12:32:07;5.30;;;3.27;;
8652;SDS011;4364;52.426;9.424;2024-03-02T12:34:34;5.67;;;3.60;;
8652;SDS011;4364;52.426;9.424;2024-03-02T12:37:01;7.40;;;5.03;;
8652;SDS011;4364;52.426;9.424;2024-03-02T12:39:28;9.00;;;6.60;;
8652;SDS011;4364;52.426;9.424;2024-03-02T12:41:54;11.33;;;7.00;;
8652;SDS011;4364;52.426;9.424;2024-03-02T12:44:21;12.30;;;7.03;;
8652;SDS011;4364;52.426;9.424;2024-03-02T12:46:48;9.77;;;7.10;;
8652;SDS011;4364;52.426;9.424;2024-03-02T12:49:15;9.50;;;6.70;;
8652;SDS011;4364;52.426;9.424;2024-03-02T12:51:42;8.90;;;6.50;;
8652;SDS011;4364;52.426;9.424;2024-03-02T12:54:09;8.43;;;6.70;;
8652;SDS011;4364;52.426;9.424;2024-03-02T12:56:37;10.83;;;6.83;;
8652;SDS011;4364;52.426;9.424;2024-03-02T12:59:04;9.50;;;7.07;;
8652;SDS011;4364;52.426;9.424;2024-03-02T13:01:31;10.63;;;6.90;;
8652;SDS011;4364;52.426;9.424;2024-03-02T13:03:58;8.50;;;6.23;;
8652;SDS011;4364;52.426;9.424;2024-03-02T13:06:25;9.70;;;6.67;;
8652;SDS011;4364;52.426;9.424;2024-03-02T13:08:55;9.47;;;6.80;;
8652;SDS011;4364;52.426;9.424;2024-03-02T13:11:22;8.90;;;6.57;;
8652;SDS011;4364;52.426;9.424;2024-03-02T13:13:50;9.63;;;6.93;;
8652;SDS011;4364;52.426;9.424;2024-03-02T13:16:18;8.97;;;6.70;;
8652;SDS011;4364;52.426;9.424;2024-03-02T13:18:55;8.70;;;6.70;;
8652;SDS011;4364;52.426;9.424;2024-03-02T13:21:21;9.50;;;6.43;;
8652;SDS011;4364;52.426;9.424;2024-03-02T13:23:48;9.80;;;6.47;;
8652;SDS011;4364;52.426;9.424;2024-03-02T13:26:14;9.30;;;6.80;;
8652;SDS011;4364;52.426;9.424;2024-03-02T13:28:42;12.17;;;7.60;;
8652;SDS011;4364;52.426;9.424;2024-03-02T13:31:08;10.50;;;7.87;;
8652;SDS011;4364;52.426;9.424;2024-03-02T13:33:35;12.57;;;8.70;;
8652;SDS011;4364;52.426;9.424;2024-03-02T13:36:01;10.90;;;7.80;;
8652;SDS011;4364;52.426;9.424;2024-03-02T13:38:29;11.50;;;8.23;;
8652;SDS011;4364;52.426;9.424;2024-03-02T13:40:55;13.57;;;9.00;;
8652;SDS011;4364;52.426;9.424;2024-03-02T13:43:22;13.73;;;8.70;;
8652;SDS011;4364;52.426;9.424;2024-03-02T13:45:50;11.90;;;8.70;;
8652;SDS011;4364;52.426;9.424;2024-03-02T13:48:18;13.57;;;9.03;;
8652;SDS011;4364;52.426;9.424;2024-03-02T13:50:46;12.47;;;8.70;;
8652;SDS011;4364;52.426;9.424;2024-03-02T13:53:13;10.60;;;8.23;;
8652;SDS011;4364;52.426;9.424;2024-03-02T13:55:39;12.23;;;8.77;;
8652;SDS011;4364;52.426;9.424;2024-03-02T13:58:08;11.87;;;8.17;;
8652;SDS011;4364;52.426;9.424;2024-03-02T14:00:34;12.60;;;9.10;;
8652;SDS011;4364;52.426;9.424;2024-03-02T14:03:02;13.00;;;8.90;;
8652;SDS011;4364;52.426;9.424;2024-03-02T14:05:29;13.43;;;8.60;;
8652;SDS011;4364;52.426;9.424;2024-03-02T14:07:56;9.80;;;7.80;;
8652;SDS011;4364;52.426;9.424;2024-03-02T14:10:22;12.10;;;8.87;;
8652;SDS011;4364;52.426;9.424;2024-03-02T14:12:49;10.97;;;8.60;;
8652;SDS011;4364;52.426;9.424;2024-03-02T14:15:16;13.23;;;8.80;;
8652;SDS011;4364;52.426;9.424;2024-03-02T14:17:45;10.37;;;8.10;;
8652;SDS011;4364;52.426;9.424;2024-03-02T14:20:12;11.33;;;8.10;;
8652;SDS011;4364;52.426;9.424;2024-03-02T14:22:39;12.07;;;8.10;;
8652;SDS011;4364;52.426;9.424;2024-03-02T14:25:06;12.07;;;8.00;;
8652;SDS011;4364;52.426;9.424;2024-03-02T14:27:33;13.13;;;8.80;;
8652;SDS011;4364;52.426;9.424;2024-03-02T14:30:19;11.10;;;8.20;;
8652;SDS011;4364;52.426;9.424;2024-03-02T14:32:46;10.77;;;7.37;;
8652;SDS011;4364;52.426;9.424;2024-03-02T14:35:12;10.07;;;7.77;;
8652;SDS011;4364;52.426;9.424;2024-03-02T14:37:39;10.00;;;7.43;;
8652;SDS011;4364;52.426;9.424;2024-03-02T14:40:06;11.83;;;7.37;;
8652;SDS011;4364;52.426;9.424;2024-03-02T14:42:35;9.97;;;7.27;;
8652;SDS011;4364;52.426;9.424;2024-03-02T14:45:02;9.57;;;7.10;;
8652;SDS011;4364;52.426;9.424;2024-03-02T14:47:31;10.57;;;7.40;;
8652;SDS011;4364;52.426;9.424;2024-03-02T14:49:59;10.93;;;7.13;;
8652;SDS011;4364;52.426;9.424;2024-03-02T14:52:26;10.27;;;7.40;;
8652;SDS011;4364;52.426;9.424;2024-03-02T14:54:52;10.50;;;7.13;;
8652;SDS011;4364;52.426;9.424;2024-03-02T14:57:19;9.60;;;6.60;;
8652;SDS011;4364;52.426;9.424;2024-03-02T14:59:46;8.77;;;6.40;;
8652;SDS011;4364;52.426;9.424;2024-03-02T15:02:12;9.33;;;6.83;;
8652;SDS011;4364;52.426;9.424;2024-03-02T15:04:39;10.47;;;7.60;;
8652;SDS011;4364;52.426;9.424;2024-03-02T15:07:05;8.93;;;7.27;;
8652;SDS011;4364;52.426;9.424;2024-03-02T15:09:32;11.53;;;7.33;;
8652;SDS011;4364;52.426;9.424;2024-03-02T15:12:01;9.17;;;7.23;;
8652;SDS011;4364;52.426;9.424;2024-03-02T15:14:27;10.67;;;7.33;;
8652;SDS011;4364;52.426;9.424;2024-03-02T15:16:54;9.50;;;6.53;;
8652;SDS011;4364;52.426;9.424;2024-03-02T15:19:22;11.53;;;6.47;;
8652;SDS011;4364;52.426;9.424;2024-03-02T15:21:48;8.90;;;6.80;;
8652;SDS011;4364;52.426;9.424;2024-03-02T15:24:15;10.30;;;6.80;;